createdAt,value
2022-08-14T00:00:12.736Z,9.97
2022-08-14T00:02:41.897Z,10.47
2022-08-14T00:05:15.818Z,9.47
2022-08-14T00:07:42.804Z,11.07
2022-08-14T00:10:52.317Z,12.57
2022-08-14T00:13:06.744Z,9.57
2022-08-14T00:15:43.771Z,9.80
2022-08-14T00:18:30.541Z,9.53
2022-08-14T00:21:04.875Z,9.40
2022-08-14T00:23:37.887Z,23.50
2022-08-14T00:26:06.712Z,14.13
2022-08-14T00:28:36.776Z,11.90
2022-08-14T00:31:06.611Z,9.17
2022-08-14T00:33:52.560Z,12.30
2022-08-14T00:36:47.779Z,14.77
2022-08-14T00:39:11.760Z,9.77
2022-08-14T00:41:39.378Z,10.17
2022-08-14T00:44:09.229Z,10.87
2022-08-14T00:46:37.959Z,10.50
2022-08-14T00:49:05.833Z,10.17
2022-08-14T00:51:37.557Z,9.70
2022-08-14T00:54:11.257Z,11.83
2022-08-14T00:56:55.445Z,9.60
2022-08-14T00:59:25.146Z,10.00
2022-08-14T01:01:54.020Z,10.37
2022-08-14T01:04:38.383Z,10.00
2022-08-14T01:07:10.408Z,10.07
2022-08-14T01:09:39.208Z,10.43
2022-08-14T01:12:07.848Z,9.17
2022-08-14T01:14:35.657Z,8.87
2022-08-14T01:17:03.624Z,10.33
2022-08-14T01:20:03.501Z,9.27
2022-08-14T01:22:31.954Z,10.87
2022-08-14T01:24:58.966Z,8.80
2022-08-14T01:27:28.615Z,9.07
2022-08-14T01:30:03.437Z,8.97
2022-08-14T01:32:37.459Z,10.90
2022-08-14T01:35:19.687Z,8.70
2022-08-14T01:37:57.965Z,8.70
2022-08-14T01:40:33.178Z,8.17
2022-08-14T01:43:08.224Z,8.43
2022-08-14T01:45:40.710Z,10.53
2022-08-14T01:48:13.378Z,11.23
2022-08-14T01:50:42.443Z,9.20
2022-08-14T01:53:10.551Z,8.87
2022-08-14T01:55:40.440Z,10.17
2022-08-14T01:58:20.157Z,8.37
2022-08-14T02:00:54.950Z,8.90
2022-08-14T02:03:29.944Z,8.57
2022-08-14T02:05:59.897Z,8.37
2022-08-14T02:08:34.661Z,9.40
2022-08-14T02:11:22.350Z,10.17
2022-08-14T02:14:06.716Z,9.70
2022-08-14T02:16:39.213Z,10.17
2022-08-14T02:19:10.277Z,9.43
2022-08-14T02:21:43.346Z,9.37
2022-08-14T02:24:39.068Z,9.70
2022-08-14T02:28:26.016Z,8.57
2022-08-14T02:29:56.499Z,9.60
2022-08-14T02:32:30.575Z,8.90
2022-08-14T02:35:11.467Z,10.17
2022-08-14T02:37:47.877Z,9.37
2022-08-14T02:40:18.344Z,9.57
2022-08-14T02:42:55.040Z,9.17
2022-08-14T02:45:38.446Z,10.57
2022-08-14T02:49:02.919Z,9.73
2022-08-14T02:51:00.726Z,8.57
2022-08-14T02:53:29.379Z,8.87
2022-08-14T02:56:02.571Z,9.77
2022-08-14T02:58:32.288Z,8.70
2022-08-14T03:01:01.647Z,9.43
2022-08-14T03:03:31.573Z,9.67
2022-08-14T03:05:59.096Z,8.80
2022-08-14T03:08:31.620Z,11.50
2022-08-14T03:11:00.088Z,8.90
2022-08-14T03:13:27.402Z,10.30
2022-08-14T03:15:58.046Z,9.73
2022-08-14T03:18:31.167Z,9.33
2022-08-14T03:21:05.796Z,11.27
2022-08-14T03:23:36.488Z,9.47
2022-08-14T03:26:12.882Z,9.63
2022-08-14T03:28:48.561Z,12.27
2022-08-14T03:31:16.341Z,9.27
2022-08-14T03:33:44.072Z,10.53
2022-08-14T03:37:38.386Z,9.67
2022-08-14T03:39:12.462Z,9.40
2022-08-14T03:41:45.429Z,9.10
2022-08-14T03:45:25.503Z,9.40
2022-08-14T03:46:59.116Z,9.93
2022-08-14T03:49:30.149Z,9.83
2022-08-14T03:52:00.778Z,9.70
2022-08-14T03:54:28.876Z,9.50
2022-08-14T03:57:00.633Z,9.37
2022-08-14T03:59:30.911Z,10.13
2022-08-14T04:02:02.175Z,9.80
2022-08-14T04:04:33.546Z,10.77
2022-08-14T04:07:01.122Z,11.27
2022-08-14T04:09:28.461Z,10.90
2022-08-14T04:11:56.391Z,10.13
2022-08-14T04:14:25.267Z,11.03
2022-08-14T04:16:52.077Z,13.23
2022-08-14T04:19:23.874Z,11.07
2022-08-14T04:22:02.369Z,11.77
2022-08-14T04:24:38.234Z,10.77
2022-08-14T04:27:11.479Z,11.37
2022-08-14T04:29:42.639Z,14.53
2022-08-14T04:33:01.948Z,10.30
2022-08-14T04:35:00.979Z,10.57
2022-08-14T04:37:53.680Z,10.83
2022-08-14T04:40:40.525Z,10.20
2022-08-14T04:43:26.440Z,11.70
2022-08-14T04:46:55.656Z,12.97
2022-08-14T04:49:04.568Z,10.33
2022-08-14T04:51:37.515Z,10.57
2022-08-14T04:54:22.492Z,9.63
2022-08-14T04:56:51.517Z,11.47
2022-08-14T04:59:21.745Z,10.07
2022-08-14T05:01:51.795Z,10.07
2022-08-14T05:04:24.849Z,11.13
2022-08-14T05:06:55.044Z,10.73
2022-08-14T05:09:29.099Z,10.93
2022-08-14T05:12:23.874Z,11.17
2022-08-14T05:14:54.997Z,10.70
2022-08-14T05:17:24.560Z,10.63
2022-08-14T05:21:05.014Z,11.80
2022-08-14T05:22:45.743Z,10.97
2022-08-14T05:25:12.705Z,11.83
2022-08-14T05:27:42.046Z,10.97
2022-08-14T05:30:09.471Z,11.87
2022-08-14T05:32:38.678Z,11.20
2022-08-14T05:35:06.132Z,11.47
2022-08-14T05:37:34.882Z,12.67
2022-08-14T05:40:02.066Z,12.40
2022-08-14T05:42:32.060Z,11.10
2022-08-14T05:45:01.408Z,11.90
2022-08-14T05:47:28.954Z,11.27
2022-08-14T05:50:17.413Z,11.97
2022-08-14T05:52:45.912Z,11.50
2022-08-14T05:55:12.834Z,12.80
2022-08-14T05:57:59.637Z,11.90
2022-08-14T06:00:36.968Z,12.13
2022-08-14T06:03:08.948Z,12.90
2022-08-14T06:05:38.691Z,12.50
2022-08-14T06:08:08.730Z,11.83
2022-08-14T06:10:54.833Z,15.40
2022-08-14T06:13:21.932Z,13.50
2022-08-14T06:15:50.765Z,13.30
2022-08-14T06:18:20.098Z,15.10
2022-08-14T06:20:52.335Z,12.33
2022-08-14T06:23:24.084Z,12.40
2022-08-14T06:25:53.389Z,13.20
2022-08-14T06:28:27.480Z,12.73
2022-08-14T06:30:55.931Z,12.63
2022-08-14T06:33:22.781Z,12.87
2022-08-14T06:35:57.046Z,12.93
2022-08-14T06:38:24.761Z,12.23
2022-08-14T06:40:52.057Z,12.53
2022-08-14T06:43:21.141Z,12.47
2022-08-14T06:45:54.009Z,12.80
2022-08-14T06:48:23.951Z,12.47
2022-08-14T06:50:55.534Z,12.33
2022-08-14T06:53:27.864Z,13.27
2022-08-14T06:56:01.155Z,13.27
2022-08-14T06:58:31.491Z,13.00
2022-08-14T07:01:25.071Z,13.00
2022-08-14T07:04:24.091Z,13.13
2022-08-14T07:06:55.574Z,16.50
2022-08-14T07:09:25.784Z,13.40
2022-08-14T07:11:55.309Z,15.13
2022-08-14T07:14:23.280Z,13.23
2022-08-14T07:16:50.127Z,12.40
2022-08-14T07:19:20.791Z,14.10
2022-08-14T07:21:48.169Z,12.53
2022-08-14T07:24:21.764Z,12.80
2022-08-14T07:26:49.360Z,11.50
2022-08-14T07:29:17.377Z,12.33
2022-08-14T07:31:44.940Z,12.17
2022-08-14T07:34:36.291Z,12.53
2022-08-14T07:37:01.555Z,12.13
2022-08-14T07:39:28.503Z,11.73
2022-08-14T07:41:55.497Z,12.47
2022-08-14T07:44:32.513Z,12.47
2022-08-14T07:47:04.142Z,12.30
2022-08-14T07:49:34.150Z,12.93
2022-08-14T07:52:02.268Z,11.70
2022-08-14T07:54:31.176Z,12.93
2022-08-14T07:57:00.069Z,13.47
2022-08-14T07:59:42.533Z,12.97
2022-08-14T08:02:17.302Z,12.47
2022-08-14T08:04:50.633Z,12.77
2022-08-14T08:07:21.768Z,11.50
2022-08-14T08:09:53.968Z,12.10
2022-08-14T08:12:25.036Z,12.57
2022-08-14T08:15:03.406Z,11.87
2022-08-14T08:17:38.588Z,13.82
2022-08-14T08:20:12.021Z,13.85
2022-08-14T08:22:43.487Z,11.90
2022-08-14T08:25:18.032Z,11.68
2022-08-14T08:28:22.358Z,15.15
2022-08-14T08:30:57.676Z,12.70
2022-08-14T08:33:32.345Z,11.40
2022-08-14T08:36:07.997Z,12.35
2022-08-14T08:39:16.567Z,11.68
2022-08-14T08:41:22.849Z,12.63
2022-08-14T08:43:52.504Z,13.13
2022-08-14T08:46:23.526Z,11.88
2022-08-14T08:51:31.202Z,12.23
2022-08-14T08:54:15.154Z,12.10
2022-08-14T08:56:52.038Z,13.38
2022-08-14T08:59:27.149Z,12.93
2022-08-14T09:02:00.820Z,11.75
2022-08-14T09:04:35.707Z,12.18
2022-08-14T09:07:14.462Z,12.07
2022-08-14T09:09:54.088Z,11.50
2022-08-14T09:12:26.985Z,12.70
2022-08-14T09:14:58.691Z,11.73
2022-08-14T09:17:26.289Z,13.70
2022-08-14T09:19:54.055Z,13.65
2022-08-14T09:22:35.427Z,14.27
2022-08-14T09:25:07.263Z,12.73
2022-08-14T09:27:36.695Z,12.90
2022-08-14T09:30:12.736Z,13.40
2022-08-14T09:33:25.739Z,14.77
2022-08-14T09:36:27.821Z,13.30
2022-08-14T09:39:23.058Z,13.48
2022-08-14T09:42:33.576Z,13.63
2022-08-14T09:45:13.893Z,15.85
2022-08-14T09:47:46.664Z,12.60
2022-08-14T09:50:20.013Z,12.05
2022-08-14T09:52:55.056Z,15.45
2022-08-14T09:55:26.210Z,13.20
2022-08-14T09:58:19.879Z,14.57
2022-08-14T10:00:59.313Z,13.20
2022-08-14T10:03:37.346Z,14.13
2022-08-14T10:06:19.915Z,12.82
2022-08-14T10:09:16.586Z,12.90
2022-08-14T10:11:58.950Z,12.93
2022-08-14T10:14:35.863Z,11.55
2022-08-14T10:17:06.427Z,11.88
2022-08-14T10:19:36.461Z,11.57
2022-08-14T10:23:14.963Z,11.55
2022-08-14T10:24:59.755Z,12.55
2022-08-14T10:27:28.141Z,10.80
2022-08-14T10:30:01.018Z,12.10
2022-08-14T10:32:36.610Z,11.32
2022-08-14T10:35:14.367Z,11.52
2022-08-14T10:37:52.817Z,11.35
2022-08-14T10:40:38.239Z,10.57
2022-08-14T10:43:25.374Z,12.20
2022-08-14T10:46:03.415Z,11.55
2022-08-14T10:48:36.427Z,12.32
2022-08-14T10:51:08.541Z,12.43
2022-08-14T10:53:39.840Z,11.38
2022-08-14T10:56:21.745Z,12.70
2022-08-14T10:59:05.610Z,11.18
2022-08-14T11:01:40.793Z,11.07
2022-08-14T11:04:25.239Z,11.52
2022-08-14T11:06:56.613Z,11.43
2022-08-14T11:09:26.292Z,11.32
2022-08-14T11:12:33.912Z,12.05
2022-08-14T11:14:59.580Z,11.50
2022-08-14T11:17:34.003Z,12.13
2022-08-14T11:20:13.971Z,10.48
2022-08-14T11:22:56.542Z,11.57
2022-08-14T11:25:43.930Z,10.95
2022-08-14T11:28:18.595Z,11.43
2022-08-14T11:30:53.581Z,12.57
2022-08-14T11:33:32.673Z,11.85
2022-08-14T11:36:01.688Z,11.20
2022-08-14T11:38:35.686Z,11.43
2022-08-14T11:41:06.183Z,10.35
2022-08-14T11:43:57.849Z,11.27
2022-08-14T11:46:30.805Z,10.98
2022-08-14T11:49:06.499Z,13.43
2022-08-14T11:51:50.843Z,11.88
2022-08-14T11:54:33.882Z,11.75
2022-08-14T11:57:02.259Z,11.52
2022-08-14T11:59:33.734Z,10.93
2022-08-14T12:03:01.237Z,11.68
2022-08-14T12:05:04.076Z,10.48
2022-08-14T12:07:32.133Z,11.00
2022-08-14T12:09:59.574Z,10.80
2022-08-14T12:12:35.088Z,11.40
2022-08-14T12:15:05.429Z,11.15
2022-08-14T12:17:47.670Z,10.95
2022-08-14T12:20:29.872Z,10.70
2022-08-14T12:23:05.577Z,13.18
2022-08-14T12:25:34.451Z,13.10
2022-08-14T12:28:05.662Z,10.77
2022-08-14T12:30:43.023Z,12.15
2022-08-14T12:33:39.509Z,10.15
2022-08-14T12:36:21.027Z,10.70
2022-08-14T12:38:50.894Z,10.18
2022-08-14T12:41:24.064Z,10.73
2022-08-14T12:43:59.751Z,11.60
2022-08-14T12:46:33.631Z,11.30
2022-08-14T12:49:09.881Z,11.38
2022-08-14T12:51:38.185Z,10.00
2022-08-14T12:54:27.750Z,10.38
2022-08-14T12:57:19.800Z,11.73
2022-08-14T12:59:49.526Z,11.27
2022-08-14T13:02:26.526Z,10.82
2022-08-14T13:04:58.040Z,10.80
2022-08-14T13:07:32.924Z,12.70
2022-08-14T13:10:00.639Z,10.88
2022-08-14T13:13:12.674Z,10.05
2022-08-14T13:15:40.362Z,12.18
2022-08-14T13:18:10.442Z,12.25
2022-08-14T13:20:37.756Z,11.55
2022-08-14T13:23:06.141Z,10.77
2022-08-14T13:25:37.713Z,11.75
2022-08-14T13:28:05.125Z,10.50
2022-08-14T13:30:41.430Z,10.18
2022-08-14T13:33:14.971Z,10.60
2022-08-14T13:35:47.560Z,11.55
2022-08-14T13:38:20.770Z,10.63
2022-08-14T13:40:55.386Z,10.93
2022-08-14T13:43:24.412Z,14.20
2022-08-14T13:46:00.655Z,12.80
2022-08-14T13:48:33.093Z,10.20
2022-08-14T13:51:07.901Z,10.43
2022-08-14T13:54:07.020Z,10.57
2022-08-14T13:56:41.974Z,10.45
2022-08-14T13:59:09.888Z,9.80
2022-08-14T14:01:43.312Z,10.77
2022-08-14T14:04:19.254Z,10.55
2022-08-14T14:06:49.442Z,9.95
2022-08-14T14:09:37.737Z,10.25
2022-08-14T14:12:37.296Z,8.82
2022-08-14T14:15:09.854Z,8.85
2022-08-14T14:17:39.545Z,9.00
2022-08-14T14:20:11.408Z,8.75
2022-08-14T14:23:02.285Z,9.00
2022-08-14T14:25:45.857Z,9.90
2022-08-14T14:28:23.766Z,9.10
2022-08-14T14:30:54.595Z,9.40
2022-08-14T14:36:15.053Z,9.52
2022-08-14T14:39:09.661Z,10.23
2022-08-14T14:41:43.979Z,8.35
2022-08-14T14:44:13.633Z,10.55
2022-08-14T14:46:50.820Z,8.20
2022-08-14T14:49:21.644Z,8.40
2022-08-14T14:51:51.466Z,8.70
2022-08-14T14:54:30.307Z,8.23
2022-08-14T14:57:02.396Z,8.90
2022-08-14T14:59:35.947Z,8.15
2022-08-14T15:02:09.078Z,8.77
2022-08-14T15:04:38.535Z,8.18
2022-08-14T15:07:06.548Z,8.02
2022-08-14T15:09:36.618Z,8.05
2022-08-14T15:12:16.114Z,9.23
2022-08-14T15:14:54.858Z,7.82
2022-08-14T15:17:24.958Z,7.70
2022-08-14T15:19:56.842Z,7.97
2022-08-14T15:22:25.279Z,8.60
2022-08-14T15:24:52.319Z,7.28
2022-08-14T15:27:21.480Z,8.48
2022-08-14T15:29:53.591Z,9.52
2022-08-14T15:32:23.230Z,9.52
2022-08-14T15:34:53.016Z,8.00
2022-08-14T15:37:22.871Z,8.98
2022-08-14T15:39:52.416Z,8.80
2022-08-14T15:42:22.907Z,8.15
2022-08-14T15:44:56.999Z,8.18
2022-08-14T15:47:28.651Z,7.88
2022-08-14T15:49:59.099Z,10.13
2022-08-14T15:52:32.376Z,7.63
2022-08-14T15:55:14.739Z,8.43
2022-08-14T15:58:02.448Z,8.35
2022-08-14T16:00:54.768Z,10.85
2022-08-14T16:03:27.497Z,9.45
2022-08-14T16:06:15.347Z,7.50
2022-08-14T16:08:50.238Z,7.72
2022-08-14T16:11:27.211Z,7.40
2022-08-14T16:13:57.747Z,7.45
2022-08-14T16:16:49.053Z,8.32
2022-08-14T16:19:19.140Z,9.25
2022-08-14T16:22:02.255Z,7.63
2022-08-14T16:24:59.741Z,7.80
2022-08-14T16:27:39.022Z,7.80
2022-08-14T16:30:25.588Z,7.55
2022-08-14T16:32:58.889Z,14.02
2022-08-14T16:35:42.984Z,8.20
2022-08-14T16:38:45.314Z,8.52
2022-08-14T16:41:22.105Z,8.80
2022-08-14T16:43:53.603Z,8.43
2022-08-14T16:46:28.069Z,8.30
2022-08-14T16:48:57.785Z,9.13
2022-08-14T16:51:27.994Z,8.27
2022-08-14T16:53:56.344Z,8.18
2022-08-14T16:56:25.481Z,7.55
2022-08-14T16:59:09.377Z,9.40
2022-08-14T17:01:41.693Z,9.80
2022-08-14T17:04:25.050Z,7.68
2022-08-14T17:06:57.934Z,11.23
2022-08-14T17:10:09.735Z,8.40
2022-08-14T17:12:39.284Z,12.45
2022-08-14T17:15:14.971Z,8.18
2022-08-14T17:17:57.447Z,7.90
2022-08-14T17:20:53.436Z,9.38
2022-08-14T17:23:13.718Z,10.90
2022-08-14T17:28:52.554Z,8.38
2022-08-14T17:31:15.563Z,8.45
2022-08-14T17:36:31.304Z,8.77
2022-08-14T17:39:16.149Z,8.93
2022-08-14T17:41:47.719Z,7.72
2022-08-14T17:44:42.436Z,8.15
2022-08-14T17:47:18.045Z,9.32
2022-08-14T17:49:52.714Z,16.08
2022-08-14T17:52:34.256Z,11.98
2022-08-14T17:55:04.116Z,9.52
2022-08-14T17:57:35.560Z,7.63
2022-08-14T18:00:16.405Z,8.48
2022-08-14T18:02:50.787Z,9.07
2022-08-14T18:05:23.574Z,10.02
2022-08-14T18:08:32.593Z,8.25
2022-08-14T18:10:56.028Z,7.45
2022-08-14T18:13:39.007Z,8.98
2022-08-14T18:16:20.574Z,9.45
2022-08-14T18:18:51.207Z,9.02
2022-08-14T18:21:40.827Z,12.85
2022-08-14T18:24:20.043Z,10.10
2022-08-14T18:27:06.939Z,12.68
2022-08-14T18:29:54.665Z,10.32
2022-08-14T18:32:31.795Z,9.32
2022-08-14T18:35:03.628Z,10.05
2022-08-14T18:37:39.436Z,11.70
2022-08-14T18:40:17.639Z,10.43
2022-08-14T18:42:48.053Z,11.88
2022-08-14T18:45:29.793Z,10.63
2022-08-14T18:48:19.226Z,10.20
2022-08-14T18:50:54.293Z,12.75
2022-08-14T18:53:24.421Z,9.50
2022-08-14T18:56:09.225Z,8.35
2022-08-14T18:58:57.112Z,8.57
2022-08-14T19:01:30.310Z,8.75
2022-08-14T19:04:01.506Z,8.73
2022-08-14T19:06:41.460Z,9.23
2022-08-14T19:09:50.198Z,14.27
2022-08-14T19:13:00.149Z,11.45
2022-08-14T19:15:34.219Z,12.02
2022-08-14T19:18:19.415Z,11.25
2022-08-14T19:21:02.487Z,12.32
2022-08-14T19:23:44.251Z,9.95
2022-08-14T19:26:33.878Z,9.68
2022-08-14T19:29:20.662Z,11.48
2022-08-14T19:31:55.507Z,9.50
2022-08-14T19:34:52.306Z,20.23
2022-08-14T19:37:56.950Z,14.50
2022-08-14T19:40:45.207Z,24.10
2022-08-14T19:43:55.209Z,16.67
2022-08-14T19:46:37.562Z,20.65
2022-08-14T19:48:58.318Z,33.15
2022-08-14T19:51:25.554Z,17.05
2022-08-14T19:54:06.473Z,13.48
2022-08-14T19:56:45.135Z,30.92
2022-08-14T19:59:18.666Z,21.90
2022-08-14T20:01:51.178Z,12.52
2022-08-14T20:04:46.038Z,11.45
2022-08-14T20:07:56.238Z,10.18
2022-08-14T20:11:06.717Z,12.98
2022-08-14T20:13:32.648Z,11.43
2022-08-14T20:16:13.054Z,11.95
2022-08-14T20:18:50.028Z,14.68
2022-08-14T20:21:18.921Z,13.23
2022-08-14T20:23:48.248Z,10.40
2022-08-14T20:26:31.735Z,13.88
2022-08-14T20:29:04.596Z,12.60
2022-08-14T20:31:36.929Z,11.98
2022-08-14T20:34:24.048Z,11.52
2022-08-14T20:37:23.069Z,13.90
2022-08-14T20:39:54.878Z,12.15
2022-08-14T20:42:52.187Z,13.45
2022-08-14T20:45:23.724Z,10.75
2022-08-14T20:47:57.544Z,10.98
2022-08-14T20:50:28.589Z,11.90
2022-08-14T20:53:05.910Z,10.90
2022-08-14T20:55:41.738Z,11.38
2022-08-14T20:58:38.149Z,11.00
2022-08-14T21:01:19.234Z,12.90
2022-08-14T21:03:57.632Z,22.83
2022-08-14T21:07:23.267Z,16.00
2022-08-14T21:10:03.049Z,12.30
2022-08-14T21:12:34.927Z,12.68
2022-08-14T21:15:00.947Z,12.98
2022-08-14T21:17:29.542Z,13.20
2022-08-14T21:19:56.717Z,19.98
2022-08-14T21:22:23.655Z,13.85
2022-08-14T21:25:01.491Z,12.35
2022-08-14T21:27:29.061Z,12.13
2022-08-14T21:30:08.677Z,15.52
2022-08-14T21:32:50.580Z,15.63
2022-08-14T21:35:25.526Z,14.00
2022-08-14T21:37:53.644Z,14.23
2022-08-14T21:40:41.062Z,17.00
2022-08-14T21:43:17.156Z,13.60
2022-08-14T21:45:53.526Z,13.07
2022-08-14T21:48:26.324Z,14.10
2022-08-14T21:51:01.124Z,12.60
2022-08-14T21:53:32.711Z,13.75
2022-08-14T21:56:02.298Z,12.55
2022-08-14T21:58:52.126Z,14.30
2022-08-14T22:01:20.251Z,12.80
2022-08-14T22:03:54.520Z,12.80
2022-08-14T22:06:28.489Z,12.75
2022-08-14T22:08:58.154Z,12.00
2022-08-14T22:11:26.137Z,12.57
2022-08-14T22:13:55.966Z,16.30
2022-08-14T22:17:00.064Z,14.48
2022-08-14T22:19:13.411Z,18.38
2022-08-14T22:21:43.903Z,20.63
2022-08-14T22:24:32.550Z,17.38
2022-08-14T22:27:04.658Z,17.38
2022-08-14T22:29:34.522Z,19.45
2022-08-14T22:32:01.808Z,20.02
2022-08-14T22:34:33.966Z,17.30
2022-08-14T22:37:02.035Z,13.25
2022-08-14T22:40:15.309Z,11.85
2022-08-14T22:42:22.641Z,13.20
2022-08-14T22:44:51.281Z,11.57
2022-08-14T22:47:24.638Z,13.57
2022-08-14T22:50:31.597Z,12.32
2022-08-14T22:52:39.764Z,13.75
2022-08-14T22:55:07.514Z,13.63
2022-08-14T22:57:37.908Z,15.48
2022-08-14T23:00:16.527Z,12.85
2022-08-14T23:02:44.136Z,11.32
2022-08-14T23:05:13.012Z,13.82
2022-08-14T23:08:59.556Z,12.68
2022-08-14T23:10:31.647Z,11.48
2022-08-14T23:13:03.984Z,10.95
2022-08-14T23:15:32.573Z,13.02
2022-08-14T23:18:00.913Z,11.25
2022-08-14T23:20:31.779Z,17.15
2022-08-14T23:22:58.918Z,18.55
2022-08-14T23:25:56.693Z,11.35
2022-08-14T23:28:34.588Z,11.52
2022-08-14T23:31:14.749Z,12.13
2022-08-14T23:33:51.828Z,11.93
2022-08-14T23:36:31.637Z,12.18
2022-08-14T23:39:07.297Z,11.88
2022-08-14T23:41:46.255Z,11.68
2022-08-14T23:44:22.174Z,14.82
2022-08-14T23:46:52.735Z,12.35
2022-08-14T23:49:25.550Z,11.23
2022-08-14T23:51:59.757Z,13.82
2022-08-14T23:54:47.493Z,12.07
2022-08-14T23:57:14.844Z,12.75
2022-08-14T23:59:44.826Z,10.05
